Time;durP1;ratioP1;P1;durP2;ratioP2;P2;SDS_P1;SDS_P2;PMS_P1;PMS_P2;Temp;Humidity;BMP_temperature;BMP_pressure;BME280_temperature;BME280_humidity;BME280_pressure;Samples;Min_cycle;Max_cycle;Signal;HPM_P1;HPM_P2
2023/12/06 00:02:15;;;;;;;22.20;12.93;;;;;;;-146.27;85.53;34009.69;5098193;28;20023;-69
2023/12/06 00:04:40;;;;;;;20.50;12.45;;;;;;;-146.27;85.26;34045.41;5104756;28;20050;-68
2023/12/06 00:07:06;;;;;;;22.70;12.52;;;;;;;-146.27;85.48;34057.31;5094316;28;20020;-69
2023/12/06 00:09:31;;;;;;;24.13;13.00;;;;;;;-146.27;85.40;34013.66;5092140;28;20093;-69
2023/12/06 00:11:56;;;;;;;18.92;11.63;;;;;;;-146.27;85.72;34031.53;5095298;28;20119;-70
2023/12/06 00:14:22;;;;;;;24.40;12.43;;;;;;;-146.27;85.42;34019.63;5092377;28;20074;-69
2023/12/06 00:16:47;;;;;;;28.80;12.93;;;;;;;-146.27;85.31;33981.91;5086330;28;20119;-69
2023/12/06 00:19:12;;;;;;;22.45;12.90;;;;;;;-146.27;85.59;33999.75;5090447;28;20049;-70
2023/12/06 00:21:38;;;;;;;22.75;13.35;;;;;;;-146.27;85.80;34001.75;5091818;28;20028;-69
2023/12/06 00:24:04;;;;;;;19.48;13.18;;;;;;;-146.27;85.80;33989.84;5104330;28;20020;-68
2023/12/06 00:26:30;;;;;;;25.25;13.48;;;;;;;-146.27;85.67;34007.69;5100781;28;20486;-71
2023/12/06 00:28:55;;;;;;;25.75;12.75;;;;;;;-146.27;85.72;34005.72;5091015;28;20040;-69
2023/12/06 00:31:21;;;;;;;26.25;13.07;;;;;;;-146.27;85.87;34017.63;5095686;28;20503;-69
2023/12/06 00:33:46;;;;;;;24.55;13.55;;;;;;;-146.27;85.83;34009.69;5081072;28;20122;-69
2023/12/06 00:36:11;;;;;;;22.73;13.15;;;;;;;-146.27;85.81;34005.72;5101262;28;20035;-68
2023/12/06 00:38:37;;;;;;;26.95;14.13;;;;;;;-146.27;85.98;34007.69;5098594;28;20051;-69
2023/12/06 00:41:02;;;;;;;24.27;14.15;;;;;;;-146.27;86.14;33997.78;5099055;28;20035;-69
2023/12/06 00:43:27;;;;;;;27.98;14.35;;;;;;;-146.27;86.08;33975.94;5099055;28;20027;-68
2023/12/06 00:45:54;;;;;;;24.10;14.00;;;;;;;-146.27;85.78;33989.84;5095083;28;20092;-69
2023/12/06 00:48:19;;;;;;;23.73;14.57;;;;;;;-146.27;86.16;33960.06;5096463;28;20028;-68
2023/12/06 00:50:44;;;;;;;26.00;14.98;;;;;;;-146.27;85.91;34001.75;5082125;28;20028;-69
2023/12/06 00:53:10;;;;;;;26.13;14.43;;;;;;;-146.27;85.91;33983.88;5095283;28;20035;-70
2023/12/06 00:55:35;;;;;;;24.90;14.88;;;;;;;-146.27;86.08;33958.09;5100391;28;20065;-69
2023/12/06 00:58:00;;;;;;;25.50;14.65;;;;;;;-146.27;85.87;33977.94;5094923;28;20024;-69
2023/12/06 01:00:26;;;;;;;22.88;14.23;;;;;;;-146.27;86.11;33970.00;5102880;28;20044;-70
2023/12/06 01:02:51;;;;;;;26.77;14.73;;;;;;;-146.27;85.97;33989.84;5097097;28;20020;-70
2023/12/06 01:05:17;;;;;;;24.67;14.35;;;;;;;-146.27;86.32;33954.13;5093095;28;20023;-69
2023/12/06 01:07:42;;;;;;;25.30;15.23;;;;;;;-146.27;86.34;33975.94;5096922;28;20255;-69
2023/12/06 01:10:08;;;;;;;26.13;14.57;;;;;;;-146.27;86.14;33997.78;5096961;28;20027;-69
2023/12/06 01:12:35;;;;;;;25.90;15.73;;;;;;;-146.27;86.10;33954.13;5097097;28;20090;-69
2023/12/06 01:15:02;;;;;;;30.75;14.95;;;;;;;-146.27;86.16;33977.94;5098189;28;20652;-69
2023/12/06 01:17:27;;;;;;;29.90;15.23;;;;;;;-146.27;86.13;33962.06;5097213;28;20106;-69
2023/12/06 01:19:52;;;;;;;23.85;15.43;;;;;;;-146.27;86.20;33975.94;5098058;28;20158;-69
2023/12/06 01:22:18;;;;;;;27.17;15.63;;;;;;;-146.27;86.31;33932.28;5101050;28;20115;-69
2023/12/06 01:24:43;;;;;;;28.10;15.85;;;;;;;-146.27;86.23;33999.75;5094113;28;20023;-70
2023/12/06 01:27:10;;;;;;;28.60;16.25;;;;;;;-146.27;85.99;33954.13;5100075;28;20067;-68
2023/12/06 01:29:35;;;;;;;26.92;15.95;;;;;;;-146.27;86.46;33966.03;5084060;28;20487;-68
2023/12/06 01:32:01;;;;;;;27.23;16.23;;;;;;;-146.27;86.46;34007.69;5098676;28;20084;-69
2023/12/06 01:34:26;;;;;;;28.98;15.98;;;;;;;-146.27;86.18;33966.03;5096875;28;20032;-69
2023/12/06 01:36:51;;;;;;;28.92;15.68;;;;;;;-146.27;86.33;33993.81;5105360;27;20023;-67
2023/12/06 01:39:17;;;;;;;27.30;15.52;;;;;;;-146.27;86.82;33989.84;5078866;28;20089;-68
2023/12/06 01:41:48;;;;;;;28.15;16.80;;;;;;;-146.27;86.53;34021.59;5073850;28;20028;-68
2023/12/06 01:44:13;;;;;;;26.75;16.48;;;;;;;-146.27;86.56;34005.72;5110293;28;20107;-68
2023/12/06 01:46:39;;;;;;;30.58;17.98;;;;;;;-146.27;86.25;34027.56;5101892;28;20526;-67
2023/12/06 01:49:04;;;;;;;28.13;15.55;;;;;;;-146.27;86.34;34023.59;5101671;28;20043;-67
2023/12/06 01:51:31;;;;;;;28.40;16.17;;;;;;;-146.27;86.58;34029.53;5102256;28;20057;-68
2023/12/06 01:53:56;;;;;;;29.90;15.65;;;;;;;-146.27;86.59;34019.63;5094407;28;20110;-67
2023/12/06 01:56:21;;;;;;;30.73;17.02;;;;;;;-146.27;86.91;34037.47;5092881;28;20107;-69
2023/12/06 01:58:47;;;;;;;28.35;16.70;;;;;;;-146.27;87.27;34019.63;5096553;28;20028;-68
2023/12/06 02:01:13;;;;;;;33.72;17.02;;;;;;;-146.27;87.24;34021.59;5098282;28;20488;-70
2023/12/06 02:03:39;;;;;;;29.95;16.00;;;;;;;-146.27;87.27;33979.91;5105402;28;20059;-67
2023/12/06 02:06:07;;;;;;;34.92;17.20;;;;;;;-146.27;87.33;33993.81;5095276;28;20028;-69
2023/12/06 02:08:35;;;;;;;28.70;15.80;;;;;;;-146.27;87.51;34053.34;5095119;28;20621;-68
2023/12/06 02:11:00;;;;;;;27.52;15.13;;;;;;;-146.27;86.86;33975.94;5110568;28;20038;-67
2023/12/06 02:13:27;;;;;;;26.67;15.30;;;;;;;-146.27;87.40;33985.88;5096046;28;20306;-68
2023/12/06 02:15:53;;;;;;;30.20;15.38;;;;;;;-146.27;87.16;33950.16;5094242;28;20020;-68
2023/12/06 02:18:19;;;;;;;30.10;15.18;;;;;;;-146.27;87.29;33942.22;5101761;28;20151;-69
2023/12/06 02:20:45;;;;;;;24.38;14.18;;;;;;;-146.27;87.29;33954.13;5095231;28;20480;-69
2023/12/06 02:23:12;;;;;;;24.92;13.55;;;;;;;-146.27;87.40;33942.22;5094217;28;20035;-69
2023/12/06 02:25:37;;;;;;;22.00;12.57;;;;;;;-146.27;87.62;33946.19;5100437;28;20031;-67
2023/12/06 02:28:03;;;;;;;32.50;14.30;;;;;;;-146.27;87.91;33926.34;5098096;28;20040;-68
2023/12/06 02:30:28;;;;;;;22.33;13.48;;;;;;;-146.27;87.79;33944.19;5092097;28;20024;-68
2023/12/06 02:32:53;;;;;;;25.48;13.20;;;;;;;-146.27;87.94;33954.13;5093741;28;20432;-67
2023/12/06 02:35:28;;;;;;;25.83;12.43;;;;;;;-146.27;87.73;33942.22;5092100;28;20468;-68
2023/12/06 02:37:57;;;;;;;21.60;12.52;;;;;;;-146.27;87.68;33910.47;5096919;28;20114;-68
2023/12/06 02:40:25;;;;;;;17.90;11.80;;;;;;;-146.27;87.71;33914.44;5095154;28;20099;-67
2023/12/06 02:42:50;;;;;;;19.00;10.48;;;;;;;-146.27;87.68;33908.47;5093727;28;20031;-67
2023/12/06 02:45:16;;;;;;;18.80;10.93;;;;;;;-146.27;87.86;33888.63;5091638;28;20071;-68
2023/12/06 02:47:42;;;;;;;22.20;11.00;;;;;;;-146.27;87.88;33874.75;5094045;28;20111;-67
2023/12/06 02:50:07;;;;;;;17.77;10.77;;;;;;;-146.27;87.82;33898.56;5096628;28;20044;-67
2023/12/06 02:52:33;;;;;;;18.33;9.90;;;;;;;-146.27;87.92;33882.69;5093228;28;20028;-67
2023/12/06 02:54:58;;;;;;;17.42;9.85;;;;;;;-146.27;87.89;33914.44;5092128;28;20085;-67
2023/12/06 02:57:23;;;;;;;20.95;9.25;;;;;;;-146.27;87.88;33870.78;5095575;28;20053;-69
2023/12/06 02:59:49;;;;;;;14.93;9.30;;;;;;;-146.27;87.97;33900.53;5108569;28;20023;-68
2023/12/06 03:02:14;;;;;;;17.67;10.18;;;;;;;-146.27;87.81;33902.53;5101938;28;20034;-67
2023/12/06 03:04:39;;;;;;;19.27;10.52;;;;;;;-146.27;87.72;33862.84;5108678;28;20019;-67
2023/12/06 03:07:05;;;;;;;15.27;9.35;;;;;;;-146.27;87.90;33904.50;5095714;28;20455;-69
2023/12/06 03:09:30;;;;;;;15.35;8.85;;;;;;;-146.27;88.06;33914.44;5092780;28;20028;-69
2023/12/06 03:11:55;;;;;;;13.70;8.75;;;;;;;-146.27;87.86;33904.50;5100691;28;20057;-69
2023/12/06 03:14:22;;;;;;;16.50;8.40;;;;;;;-146.27;87.97;33902.53;5105580;28;20028;-68
2023/12/06 03:16:47;;;;;;;14.75;8.55;;;;;;;-146.27;88.10;33914.44;5096514;28;20114;-68
2023/12/06 03:19:12;;;;;;;15.45;7.95;;;;;;;-146.27;87.89;33888.63;5101440;28;20035;-68
2023/12/06 03:21:38;;;;;;;14.15;8.63;;;;;;;-146.27;88.24;33954.13;5097566;28;20039;-68
2023/12/06 03:24:04;;;;;;;15.27;8.82;;;;;;;-146.27;88.12;33922.38;5099043;28;20016;-68
2023/12/06 03:26:29;;;;;;;13.57;9.10;;;;;;;-146.27;88.18;33948.16;5094934;28;20046;-68
2023/12/06 03:28:54;;;;;;;19.90;8.50;;;;;;;-146.27;88.08;33918.41;5100115;28;20035;-67
2023/12/06 03:31:20;;;;;;;18.80;9.65;;;;;;;-146.27;88.18;33906.50;5090534;28;20020;-67
2023/12/06 03:33:45;;;;;;;18.77;9.73;;;;;;;-146.27;88.19;33882.69;5101379;28;20020;-68
2023/12/06 03:36:11;;;;;;;17.02;8.90;;;;;;;-146.27;88.16;33882.69;5099720;28;20162;-68
2023/12/06 03:38:36;;;;;;;16.25;9.55;;;;;;;-146.27;88.10;33910.47;5094350;28;20080;-68
2023/12/06 03:41:02;;;;;;;16.48;8.43;;;;;;;-146.27;88.33;33878.72;5097372;28;20032;-68
2023/12/06 03:43:27;;;;;;;22.27;9.90;;;;;;;-146.27;88.16;33896.56;5102276;28;20026;-67
2023/12/06 03:45:53;;;;;;;21.95;10.05;;;;;;;-146.27;88.16;33900.53;5098390;28;20061;-67
2023/12/06 03:48:19;;;;;;;18.75;10.23;;;;;;;-146.27;88.20;33914.44;5105222;28;20027;-68
2023/12/06 03:50:44;;;;;;;18.98;10.23;;;;;;;-146.27;88.10;33868.78;5100878;28;20296;-67
2023/12/06 03:53:10;;;;;;;19.48;9.55;;;;;;;-146.27;88.20;33886.66;5105545;28;20020;-69
2023/12/06 03:55:35;;;;;;;18.40;10.57;;;;;;;-146.27;88.25;33854.91;5106380;28;20221;-67
2023/12/06 03:58:00;;;;;;;17.33;11.20;;;;;;;-146.27;88.04;33866.81;5108038;28;20073;-67
2023/12/06 04:00:26;;;;;;;23.95;10.15;;;;;;;-146.27;88.32;33896.56;5107445;28;20031;-68
2023/12/06 04:02:53;;;;;;;24.85;11.35;;;;;;;-146.27;88.41;33870.78;5107422;28;20027;-66
2023/12/06 04:05:18;;;;;;;24.85;11.32;;;;;;;-146.27;87.97;33862.84;5095198;28;20051;-67
2023/12/06 04:07:43;;;;;;;27.27;10.15;;;;;;;-146.27;87.97;33833.06;5105589;28;20104;-66
2023/12/06 04:10:09;;;;;;;19.05;10.32;;;;;;;-146.27;87.81;33854.91;5099558;28;20447;-67
2023/12/06 04:12:34;;;;;;;19.67;10.52;;;;;;;-146.27;88.06;33841.00;5092611;28;20425;-67
2023/12/06 04:15:00;;;;;;;18.95;9.27;;;;;;;-146.27;87.97;33817.19;5104056;28;20016;-70
2023/12/06 04:17:25;;;;;;;21.52;10.80;;;;;;;-146.27;87.68;33860.84;5096755;28;20109;-70
2023/12/06 04:19:51;;;;;;;22.85;9.93;;;;;;;-146.27;87.86;33835.06;5107274;28;20023;-68
2023/12/06 04:22:17;;;;;;;20.67;10.48;;;;;;;-146.27;87.71;33831.09;5072293;28;20066;-68
2023/12/06 04:24:42;;;;;;;15.13;9.57;;;;;;;-146.27;87.66;33827.13;5090804;28;20085;-69
2023/12/06 04:27:08;;;;;;;27.02;11.52;;;;;;;-146.27;87.82;33870.78;5103662;28;20068;-69
2023/12/06 04:29:33;;;;;;;23.10;11.20;;;;;;;-146.27;87.89;33841.00;5091905;28;20034;-69
2023/12/06 04:31:59;;;;;;;26.73;12.13;;;;;;;-146.27;87.84;33852.91;5098897;28;20388;-69
2023/12/06 04:34:24;;;;;;;23.38;11.65;;;;;;;-146.27;87.68;33771.56;5102715;28;20396;-71
2023/12/06 04:36:49;;;;;;;26.85;12.52;;;;;;;-146.27;87.59;33835.06;5089685;28;20114;-68
2023/12/06 04:39:15;;;;;;;24.30;12.27;;;;;;;-146.27;87.58;33837.03;5098213;28;20081;-69
2023/12/06 04:41:40;;;;;;;21.55;11.73;;;;;;;-146.27;87.90;33886.66;5095680;28;20543;-68
2023/12/06 04:44:05;;;;;;;26.92;12.10;;;;;;;-146.27;87.88;33846.97;5091743;28;20165;-68
2023/12/06 04:46:31;;;;;;;24.42;12.60;;;;;;;-146.27;87.76;33878.72;5103415;28;20031;-69
2023/12/06 04:48:56;;;;;;;29.85;12.63;;;;;;;-146.27;87.98;33874.75;5099206;28;20024;-69
2023/12/06 04:51:22;;;;;;;24.67;11.70;;;;;;;-146.27;87.70;33866.81;5093957;28;20396;-69
2023/12/06 04:53:47;;;;;;;24.75;12.70;;;;;;;-146.27;88.07;33888.63;5101357;28;20127;-68
2023/12/06 04:56:13;;;;;;;21.13;12.52;;;;;;;-146.27;87.81;33858.88;5090650;28;20039;-68
2023/12/06 04:58:39;;;;;;;22.50;12.52;;;;;;;-146.27;87.83;33886.66;5105248;28;20034;-68
2023/12/06 05:01:04;;;;;;;27.13;12.65;;;;;;;-146.27;88.02;33890.63;5095766;28;20016;-69
2023/12/06 05:03:30;;;;;;;23.67;12.43;;;;;;;-146.27;88.00;33882.69;5093171;28;20035;-68
2023/12/06 05:05:55;;;;;;;24.70;12.50;;;;;;;-146.27;88.06;33884.66;5103739;28;20447;-68
2023/12/06 05:08:21;;;;;;;29.38;11.02;;;;;;;-146.27;88.06;33882.69;5093969;28;20384;-68
2023/12/06 05:10:47;;;;;;;29.27;12.05;;;;;;;-146.27;87.81;33846.97;5095008;28;20023;-70
2023/12/06 05:13:12;;;;;;;18.23;10.50;;;;;;;-146.27;87.79;33844.97;5100284;28;20132;-69
2023/12/06 05:15:38;;;;;;;25.13;11.38;;;;;;;-146.27;87.61;33843.00;5089567;28;20257;-69
2023/12/06 05:18:04;;;;;;;19.60;9.57;;;;;;;-146.27;87.55;33785.44;5096240;28;20031;-68
2023/12/06 05:20:29;;;;;;;27.48;7.97;;;;;;;-146.27;87.32;33880.69;5092959;28;20028;-69
2023/12/06 05:22:54;;;;;;;16.70;6.57;;;;;;;-146.27;87.14;33787.44;5094063;28;20034;-69
2023/12/06 05:25:19;;;;;;;17.02;6.40;;;;;;;-146.27;87.05;33835.06;5091293;28;20020;-69
2023/12/06 05:27:45;;;;;;;10.40;6.13;;;;;;;-146.27;87.10;33835.06;5101333;28;20047;-69
2023/12/06 05:30:11;;;;;;;12.82;5.80;;;;;;;-146.27;86.89;33827.13;5106776;28;20039;-70
2023/12/06 05:32:37;;;;;;;12.40;6.63;;;;;;;-146.27;86.78;33767.59;5094620;28;20031;-69
2023/12/06 05:35:05;;;;;;;12.65;6.25;;;;;;;-146.27;86.70;33791.41;5095253;28;20016;-69
2023/12/06 05:37:31;;;;;;;10.82;5.93;;;;;;;-146.27;86.56;33813.22;5094290;28;20055;-69
2023/12/06 05:39:56;;;;;;;11.38;5.97;;;;;;;-146.27;86.53;33795.38;5098569;28;20039;-67
2023/12/06 05:42:22;;;;;;;11.40;6.05;;;;;;;-146.27;86.32;33771.56;5093388;28;20065;-69
2023/12/06 05:44:47;;;;;;;11.88;6.05;;;;;;;-146.27;86.21;33787.44;5107758;28;20023;-69
2023/12/06 05:47:13;;;;;;;16.02;7.03;;;;;;;-146.27;86.19;33791.41;5103516;28;20024;-69
2023/12/06 05:49:38;;;;;;;8.98;5.55;;;;;;;-146.27;85.90;33827.13;5109461;28;20012;-69
2023/12/06 05:52:04;;;;;;;15.65;6.72;;;;;;;-146.27;85.80;33848.94;5081444;28;20031;-69
2023/12/06 05:54:30;;;;;;;9.95;6.15;;;;;;;-146.27;85.77;33837.03;5102059;28;20287;-69
2023/12/06 05:56:55;;;;;;;11.88;6.68;;;;;;;-146.27;85.60;33848.94;5107397;28;20399;-68
2023/12/06 05:59:21;;;;;;;13.80;6.20;;;;;;;-146.27;85.70;33827.13;5103655;28;20361;-68
2023/12/06 06:01:46;;;;;;;13.38;6.68;;;;;;;-146.27;85.46;33854.91;5103072;28;20027;-68
2023/12/06 06:04:11;;;;;;;17.23;7.68;;;;;;;-146.27;85.47;33831.09;5105483;28;20065;-69
2023/12/06 06:06:37;;;;;;;12.73;6.10;;;;;;;-146.27;85.20;33843.00;5105835;28;20448;-69
2023/12/06 06:09:02;;;;;;;20.77;6.75;;;;;;;-146.27;85.15;33938.25;5095511;28;20032;-69
2023/12/06 06:11:28;;;;;;;12.50;6.05;;;;;;;-146.27;84.85;33900.53;5097739;28;20115;-69
2023/12/06 06:13:54;;;;;;;14.43;6.18;;;;;;;-146.27;84.81;33932.28;5098450;28;20500;-69
2023/12/06 06:16:20;;;;;;;17.20;7.05;;;;;;;-146.27;84.82;33942.22;5093382;28;20039;-68
2023/12/06 06:18:45;;;;;;;13.50;6.20;;;;;;;-146.27;84.69;33916.41;5094579;28;20023;-68
2023/12/06 06:21:11;;;;;;;10.93;5.22;;;;;;;-146.27;84.64;33952.13;5102875;28;20042;-68
2023/12/06 06:23:36;;;;;;;11.77;6.25;;;;;;;-146.27;84.45;33971.97;5101615;28;20392;-70
2023/12/06 06:26:01;;;;;;;14.60;6.32;;;;;;;-146.27;84.39;33995.78;5099489;28;20376;-69
2023/12/06 06:28:27;;;;;;;15.35;5.68;;;;;;;-146.27;84.49;34033.50;5084654;28;20489;-71
2023/12/06 06:30:52;;;;;;;14.90;6.38;;;;;;;-146.27;84.31;34019.63;5093551;28;20054;-69
2023/12/06 06:33:17;;;;;;;14.43;6.35;;;;;;;-146.27;84.61;34013.66;5106498;28;20027;-69
2023/12/06 06:35:43;;;;;;;18.27;6.28;;;;;;;-146.27;84.43;34045.41;5100455;28;20039;-69
2023/12/06 06:38:09;;;;;;;16.02;6.63;;;;;;;-146.27;84.33;34075.19;5095621;28;20362;-69
2023/12/06 06:40:35;;;;;;;12.73;6.20;;;;;;;-146.27;84.42;34069.22;5101658;28;20039;-69
2023/12/06 06:43:00;;;;;;;12.57;5.85;;;;;;;-146.27;84.50;34067.25;5108097;28;20161;-69
2023/12/06 06:45:25;;;;;;;10.10;5.55;;;;;;;-146.27;84.51;34049.38;5103794;28;20023;-70
2023/12/06 06:47:50;;;;;;;8.43;5.50;;;;;;;-146.27;84.27;34057.31;5097029;28;20102;-69
2023/12/06 06:50:16;;;;;;;15.20;5.95;;;;;;;-146.27;84.48;34089.06;5104147;28;20034;-69
2023/12/06 06:52:41;;;;;;;7.00;4.70;;;;;;;-146.27;84.62;34128.75;5106077;28;20020;-69
2023/12/06 06:55:07;;;;;;;11.38;5.22;;;;;;;-146.27;84.43;34132.72;5104938;28;20027;-68
2023/12/06 06:57:33;;;;;;;13.05;5.95;;;;;;;-146.27;84.67;34114.88;5091432;28;20035;-69
2023/12/06 06:59:58;;;;;;;9.90;5.70;;;;;;;-146.27;84.48;34089.06;5097758;28;20031;-69
2023/12/06 07:02:23;;;;;;;11.98;5.47;;;;;;;-146.27;84.63;34077.16;5096309;28;20032;-69
2023/12/06 07:04:50;;;;;;;11.20;5.38;;;;;;;-146.27;84.34;34100.97;5076686;28;20047;-69
2023/12/06 07:07:16;;;;;;;11.43;5.90;;;;;;;-146.27;84.81;34055.34;5099494;28;20023;-70
2023/12/06 07:09:41;;;;;;;15.65;5.70;;;;;;;-146.27;84.83;34108.91;5090612;28;20103;-69
2023/12/06 07:12:08;;;;;;;8.52;5.15;;;;;;;-146.27;84.65;34130.75;5091356;28;20105;-69
2023/12/06 07:14:33;;;;;;;9.70;5.20;;;;;;;-146.27;84.58;34134.72;5101394;28;20023;-70
2023/12/06 07:16:59;;;;;;;13.40;6.80;;;;;;;-146.27;84.53;34124.78;5099429;28;20032;-68
2023/12/06 07:19:24;;;;;;;8.70;5.30;;;;;;;-146.27;84.67;34140.66;5076128;28;20088;-70
2023/12/06 07:21:49;;;;;;;11.50;6.03;;;;;;;-146.27;84.50;34152.56;5099081;28;20804;-68
2023/12/06 07:24:15;;;;;;;14.50;6.03;;;;;;;-146.27;85.16;34104.94;5094689;28;20052;-69
2023/12/06 07:26:42;;;;;;;11.48;6.30;;;;;;;-146.27;84.94;34124.78;5107548;28;20019;-69
2023/12/06 07:29:10;;;;;;;15.70;6.85;;;;;;;-146.27;84.59;34172.41;5098447;28;20051;-68
2023/12/06 07:31:35;;;;;;;10.30;6.38;;;;;;;-146.27;84.55;34144.63;5094293;28;20028;-68
2023/12/06 07:34:01;;;;;;;14.93;7.80;;;;;;;-146.27;84.67;34184.31;5096426;28;20061;-68
2023/12/06 07:36:26;;;;;;;15.07;6.88;;;;;;;-146.27;84.81;34164.47;5095586;28;20038;-69
2023/12/06 07:38:51;;;;;;;14.63;7.00;;;;;;;-146.27;84.77;34222.03;5097611;28;20027;-70
2023/12/06 07:41:17;;;;;;;12.55;7.45;;;;;;;-146.27;84.56;34174.41;5104794;28;20074;-69
2023/12/06 07:43:42;;;;;;;18.55;9.30;;;;;;;-146.27;84.61;34218.06;5104849;28;20028;-69
2023/12/06 07:46:08;;;;;;;15.90;7.45;;;;;;;-146.27;85.06;34132.72;5097774;28;20455;-69
2023/12/06 07:48:34;;;;;;;16.23;7.30;;;;;;;-146.27;84.98;34224.03;5097080;28;20019;-69
2023/12/06 07:51:00;;;;;;;13.23;7.57;;;;;;;-146.27;84.84;34218.06;5082102;28;20035;-69
2023/12/06 07:53:26;;;;;;;14.23;7.53;;;;;;;-146.27;85.26;34194.25;5103255;28;20421;-70
2023/12/06 07:55:55;;;;;;;13.90;7.70;;;;;;;-146.27;85.44;34188.28;5096868;28;20084;-70
2023/12/06 07:58:23;;;;;;;18.33;7.75;;;;;;;-146.27;85.34;34216.09;5098497;28;20028;-69
2023/12/06 08:00:49;;;;;;;23.58;7.93;;;;;;;-146.27;85.28;34224.03;5096866;28;20482;-69
2023/12/06 08:03:14;;;;;;;11.57;7.22;;;;;;;-146.27;85.86;34095.03;5105711;28;20115;-68
2023/12/06 08:05:40;;;;;;;12.93;7.18;;;;;;;-146.27;85.60;34226.00;5110097;28;20058;-69
2023/12/06 08:08:06;;;;;;;25.15;7.47;;;;;;;-146.27;85.99;34180.34;5102975;28;20348;-69
2023/12/06 08:10:33;;;;;;;13.32;7.93;;;;;;;-146.27;85.83;34180.34;5106187;28;20452;-70
2023/12/06 08:12:59;;;;;;;18.27;8.70;;;;;;;-146.27;85.70;34166.47;5110362;28;20015;-69
2023/12/06 08:15:25;;;;;;;13.57;7.53;;;;;;;-146.27;85.84;34152.56;5106899;28;20035;-70
2023/12/06 08:17:50;;;;;;;20.77;8.05;;;;;;;-146.27;85.67;34162.50;5090155;28;20036;-68
2023/12/06 08:20:16;;;;;;;14.32;8.43;;;;;;;-146.27;85.47;34112.88;5090814;28;20098;-71
2023/12/06 08:22:44;;;;;;;17.65;7.75;;;;;;;-146.27;85.88;34132.72;5090103;28;20052;-71
2023/12/06 08:25:11;;;;;;;17.20;7.75;;;;;;;-146.27;85.74;34120.81;5100074;28;20024;-68
2023/12/06 08:27:37;;;;;;;17.92;7.95;;;;;;;-146.27;85.78;34108.91;5103632;28;20047;-69
2023/12/06 08:30:02;;;;;;;12.90;6.80;;;;;;;-146.27;85.93;34130.75;5079660;28;20027;-70
2023/12/06 08:32:28;;;;;;;12.30;7.90;;;;;;;-146.27;85.86;34132.72;5103880;28;20059;-70
2023/12/06 08:34:53;;;;;;;17.08;8.65;;;;;;;-146.27;85.99;34110.91;5091641;28;20103;-70
2023/12/06 08:37:19;;;;;;;16.65;7.78;;;;;;;-146.27;85.75;34083.13;5104475;28;20266;-70
2023/12/06 08:39:45;;;;;;;14.20;7.43;;;;;;;-146.27;85.65;34077.16;5099969;28;20024;-69
2023/12/06 08:42:17;;;;;;;12.13;7.68;;;;;;;-146.27;85.70;34063.28;5102942;28;20027;-69
2023/12/06 08:44:43;;;;;;;15.38;8.48;;;;;;;-146.27;85.53;34025.56;5110186;28;20020;-69
2023/12/06 08:47:09;;;;;;;11.68;7.10;;;;;;;-146.27;85.46;34021.59;5110141;28;20168;-70
2023/12/06 08:49:38;;;;;;;16.27;7.95;;;;;;;-146.27;85.45;34043.44;5100124;28;20020;-69
2023/12/06 08:52:07;;;;;;;15.35;8.32;;;;;;;-146.27;85.32;34013.66;5110107;28;20479;-67
2023/12/06 08:54:33;;;;;;;13.13;7.85;;;;;;;-146.27;85.56;34021.59;5110027;28;20016;-67
2023/12/06 08:56:59;;;;;;;15.40;7.82;;;;;;;-146.27;85.40;33970.00;5095149;28;20510;-68
2023/12/06 08:59:24;;;;;;;19.58;7.50;;;;;;;-146.27;85.41;33950.16;5092688;28;20028;-67
2023/12/06 09:01:49;;;;;;;17.92;7.47;;;;;;;-146.27;85.56;33973.97;5089780;28;20547;-67
2023/12/06 09:04:15;;;;;;;15.10;7.25;;;;;;;-146.27;85.44;33936.25;5089347;28;20020;-67
2023/12/06 09:06:40;;;;;;;14.05;7.93;;;;;;;-146.27;85.64;33902.53;5089829;28;20027;-68
2023/12/06 09:09:06;;;;;;;15.50;7.28;;;;;;;-146.27;85.67;33890.63;5089779;28;20103;-67
2023/12/06 09:11:31;;;;;;;10.75;6.55;;;;;;;-146.27;85.59;33896.56;5092683;27;20065;-67
2023/12/06 09:13:57;;;;;;;25.08;8.98;;;;;;;-146.27;84.98;33844.97;5115399;27;20011;-67
2023/12/06 09:16:22;;;;;;;16.10;7.45;;;;;;;-146.27;85.00;33839.03;5097516;28;20123;-67
2023/12/06 09:18:47;;;;;;;18.98;7.95;;;;;;;-146.27;84.36;33850.94;5105599;28;20106;-66
2023/12/06 09:21:13;;;;;;;16.80;7.55;;;;;;;-146.27;83.00;33902.53;5095060;28;20038;-67
2023/12/06 09:23:39;;;;;;;13.27;6.30;;;;;;;-146.27;82.42;33846.97;5108367;28;20028;-67
2023/12/06 09:26:05;;;;;;;17.20;6.85;;;;;;;-146.27;82.16;33807.28;5097331;28;20027;-68
2023/12/06 09:28:30;;;;;;;10.38;5.95;;;;;;;-146.27;82.13;33823.16;5106777;28;20123;-67
2023/12/06 09:30:56;;;;;;;10.15;5.03;;;;;;;-146.27;81.87;33797.34;5093613;28;20059;-68
2023/12/06 09:33:21;;;;;;;13.18;6.03;;;;;;;-146.27;81.85;33743.78;5101540;28;20102;-67
2023/12/06 09:35:47;;;;;;;10.93;5.25;;;;;;;-146.27;81.55;33737.81;5097588;28;20016;-68
2023/12/06 09:38:13;;;;;;;10.75;5.63;;;;;;;-146.27;81.59;33735.84;5108259;28;20042;-67
2023/12/06 09:40:39;;;;;;;14.40;6.10;;;;;;;-146.27;81.43;33719.97;5098503;28;20023;-68
2023/12/06 09:43:04;;;;;;;14.05;6.95;;;;;;;-146.27;81.49;33694.16;5107878;28;20608;-68
2023/12/06 09:45:31;;;;;;;11.18;5.70;;;;;;;-146.27;81.35;33678.28;5099081;28;20099;-68
2023/12/06 09:47:57;;;;;;;10.90;6.20;;;;;;;-146.27;81.46;33704.09;5095100;28;20028;-67
2023/12/06 09:50:25;;;;;;;14.57;6.28;;;;;;;-146.27;81.83;33672.34;5108964;28;20058;-68
2023/12/06 09:52:51;;;;;;;9.88;6.20;;;;;;;-146.27;82.41;33594.97;5098461;28;20114;-69
2023/12/06 09:55:23;;;;;;;13.25;6.60;;;;;;;-146.27;82.57;33505.66;5097390;28;20020;-68
2023/12/06 09:57:53;;;;;;;10.45;5.32;;;;;;;-146.27;81.40;33456.06;5094743;28;20032;-68
2023/12/06 10:00:19;;;;;;;11.32;6.07;;;;;;;-146.27;79.08;33467.97;5092874;28;20483;-68
2023/12/06 10:02:53;;;;;;;9.68;5.03;;;;;;;-146.27;78.36;33446.13;5081709;28;20076;-68
2023/12/06 10:05:18;;;;;;;8.35;5.03;;;;;;;-146.27;77.60;33487.81;5110245;28;20031;-68
2023/12/06 10:07:46;;;;;;;11.07;5.40;;;;;;;-146.27;76.50;33493.75;5102993;28;20035;-67
2023/12/06 10:10:19;;;;;;;12.15;4.90;;;;;;;-146.27;77.41;33398.53;5077343;28;20032;-67
2023/12/06 10:12:58;;;;;;;11.75;4.80;;;;;;;-146.27;76.93;33263.59;5098565;28;20476;-68
2023/12/06 10:15:36;;;;;;;6.63;3.85;;;;;;;-146.27;74.30;33172.34;5084781;28;20043;-69
2023/12/06 10:18:03;;;;;;;9.27;5.32;;;;;;;-146.27;72.71;33013.63;5099122;28;20138;-68
2023/12/06 10:20:29;;;;;;;6.70;3.28;;;;;;;-146.27;71.23;32930.28;5087746;28;20476;-68
2023/12/06 10:22:54;;;;;;;8.90;3.40;;;;;;;-146.27;68.97;32807.28;5100551;28;20031;-69
2023/12/06 10:25:37;;;;;;;6.78;3.20;;;;;;;-146.27;66.34;32729.91;5098752;27;20028;-70
2023/12/06 10:28:03;;;;;;;6.00;2.65;;;;;;;-146.27;66.04;32571.22;5098359;28;20039;-68
2023/12/06 10:30:28;;;;;;;5.90;2.78;;;;;;;-146.27;63.98;32497.81;5080248;28;20032;-67
2023/12/06 10:32:55;;;;;;;7.10;2.45;;;;;;;-146.27;62.65;32438.31;5096372;28;20480;-70
2023/12/06 10:35:21;;;;;;;4.80;2.15;;;;;;;-146.27;61.59;32624.78;5110917;27;20097;-67
2023/12/06 10:37:49;;;;;;;6.30;2.85;;;;;;;-146.27;62.63;32741.81;5100569;27;20400;-67
2023/12/06 10:40:15;;;;;;;7.40;2.95;;;;;;;-146.27;64.22;32712.06;5111513;28;20421;-68
2023/12/06 10:42:48;;;;;;;7.85;3.33;;;;;;;-146.27;65.21;32585.09;5107043;28;20253;-67
2023/12/06 10:45:15;;;;;;;6.43;2.78;;;;;;;-146.27;64.11;32440.28;5106814;28;20031;-67
2023/12/06 10:47:42;;;;;;;6.63;2.90;;;;;;;-146.27;62.68;32218.13;5100121;28;20027;-67
2023/12/06 10:50:10;;;;;;;6.32;2.40;;;;;;;-146.27;57.98;32194.31;5096316;28;20024;-68
2023/12/06 10:52:37;;;;;;;8.10;2.72;;;;;;;-146.27;59.96;31861.09;5095591;28;20045;-68
2023/12/06 10:55:04;;;;;;;6.05;2.28;;;;;;;-146.27;56.51;31777.78;5107659;28;20033;-67
2023/12/06 10:57:30;;;;;;;4.85;2.35;;;;;;;-146.27;54.67;31750.03;5097838;28;20036;-69
2023/12/06 10:59:57;;;;;;;5.60;2.38;;;;;;;-146.27;54.86;31752.00;5107791;28;20043;-67
2023/12/06 11:02:23;;;;;;;6.53;2.30;;;;;;;-146.27;54.33;31801.59;5093470;28;20139;-67